createdAt,value
2019-01-11T00:00:40.181Z,179.45
2019-01-11T00:01:44.236Z,172.35
2019-01-11T00:02:47.621Z,169.97
2019-01-11T00:03:50.900Z,169.80
2019-01-11T00:04:54.284Z,174.27
2019-01-11T00:05:57.577Z,163.52
2019-01-11T00:07:00.874Z,167.37
2019-01-11T00:08:04.738Z,170.92
2019-01-11T00:09:08.179Z,212.95
2019-01-11T00:10:11.593Z,226.10
2019-01-11T00:11:14.949Z,182.97
2019-01-11T00:12:18.226Z,187.97
2019-01-11T00:13:21.508Z,183.45
2019-01-11T00:14:24.896Z,181.97
2019-01-11T00:15:28.576Z,177.32
2019-01-11T00:16:31.874Z,178.23
2019-01-11T00:17:35.232Z,181.05
2019-01-11T00:18:38.535Z,177.78
2019-01-11T00:19:41.825Z,182.37
2019-01-11T00:20:45.247Z,179.70
2019-01-11T00:21:48.536Z,180.65
2019-01-11T00:22:51.874Z,180.40
2019-01-11T00:23:55.240Z,173.75
2019-01-11T00:24:58.920Z,182.02
2019-01-11T00:26:02.252Z,182.47
2019-01-11T00:27:05.553Z,185.70
2019-01-11T00:28:09.180Z,189.85
2019-01-11T00:29:12.595Z,180.00
2019-01-11T00:30:15.953Z,192.07
2019-01-11T00:31:19.329Z,182.65
2019-01-11T00:32:22.666Z,192.28
2019-01-11T00:33:26.304Z,178.65
2019-01-11T00:34:29.599Z,168.97
2019-01-11T00:35:32.885Z,176.60
2019-01-11T00:36:36.214Z,171.77
2019-01-11T00:37:39.504Z,174.35
2019-01-11T00:38:42.911Z,174.38
2019-01-11T00:39:46.268Z,178.72
2019-01-11T00:40:49.555Z,163.22
2019-01-11T00:41:52.849Z,170.75
2019-01-11T00:42:56.216Z,166.40
2019-01-11T00:43:59.864Z,168.10
2019-01-11T00:45:03.222Z,167.30
2019-01-11T00:46:06.842Z,153.68
2019-01-11T00:47:10.155Z,161.30
2019-01-11T00:48:13.439Z,145.43
2019-01-11T00:49:16.798Z,140.37
2019-01-11T00:50:21.856Z,140.05
2019-01-11T00:51:25.147Z,143.10
2019-01-11T00:52:28.469Z,139.95
2019-01-11T00:53:31.853Z,144.37
2019-01-11T00:54:35.212Z,150.95
2019-01-11T00:55:38.572Z,137.50
2019-01-11T00:56:41.858Z,147.20
2019-01-11T00:57:45.181Z,144.75
2019-01-11T00:58:48.536Z,143.37
2019-01-11T00:59:52.114Z,148.45
2019-01-11T01:00:55.397Z,135.07
2019-01-11T01:01:58.811Z,136.97
2019-01-11T01:03:02.124Z,143.07
2019-01-11T01:04:07.389Z,140.47
2019-01-11T01:05:10.496Z,143.85
2019-01-11T01:06:13.858Z,130.67
2019-01-11T01:07:17.228Z,135.30
2019-01-11T01:08:20.721Z,154.05
2019-01-11T01:09:23.999Z,153.75
2019-01-11T01:10:27.381Z,150.65
2019-01-11T01:11:30.637Z,151.47
2019-01-11T01:12:33.988Z,151.90
2019-01-11T01:13:37.385Z,158.18
2019-01-11T01:14:40.679Z,147.65
2019-01-11T01:15:44.139Z,153.90
2019-01-11T01:16:47.428Z,150.20
2019-01-11T01:17:51.420Z,158.42
2019-01-11T01:18:54.853Z,176.25
2019-01-11T01:19:58.145Z,171.98
2019-01-11T01:21:01.439Z,181.78
2019-01-11T01:22:04.734Z,162.50
2019-01-11T01:23:08.030Z,162.25
2019-01-11T01:24:11.326Z,163.82
2019-01-11T01:25:14.618Z,170.60
2019-01-11T01:26:18.995Z,172.68
2019-01-11T01:27:22.280Z,167.25
2019-01-11T01:28:26.004Z,175.00
2019-01-11T01:29:29.327Z,162.40
2019-01-11T01:30:32.709Z,168.13
2019-01-11T01:31:36.009Z,163.57
2019-01-11T01:32:39.298Z,161.20
2019-01-11T01:33:42.586Z,171.70
2019-01-11T01:34:46.318Z,168.95
2019-01-11T01:35:49.684Z,167.18
2019-01-11T01:36:53.230Z,168.28
2019-01-11T01:37:56.526Z,177.85
2019-01-11T01:38:59.818Z,176.10
2019-01-11T01:40:04.516Z,172.13
2019-01-11T01:41:07.810Z,179.15
2019-01-11T01:42:11.107Z,182.80
2019-01-11T01:43:14.393Z,176.63
2019-01-11T01:44:17.680Z,175.47
2019-01-11T01:45:21.082Z,173.13
2019-01-11T01:46:24.378Z,184.07
2019-01-11T01:47:27.702Z,185.43
2019-01-11T01:48:31.002Z,192.25
2019-01-11T01:49:34.346Z,188.70
2019-01-11T01:50:37.645Z,185.97
2019-01-11T01:51:40.925Z,194.82
2019-01-11T01:52:44.233Z,194.17
2019-01-11T01:53:47.720Z,188.10
2019-01-11T01:54:51.177Z,193.78
2019-01-11T01:55:54.474Z,190.75
2019-01-11T01:56:58.103Z,199.12
2019-01-11T01:58:01.510Z,203.62
2019-01-11T01:59:04.802Z,198.97
2019-01-11T02:00:11.405Z,201.70
2019-01-11T02:01:14.763Z,197.53
2019-01-11T02:02:18.070Z,205.15
2019-01-11T02:03:21.421Z,200.30
2019-01-11T02:04:24.820Z,192.43
2019-01-11T02:05:28.109Z,202.35
2019-01-11T02:06:31.415Z,206.38
2019-01-11T02:07:34.716Z,203.25
2019-01-11T02:08:37.999Z,199.60
2019-01-11T02:09:42.981Z,196.80
2019-01-11T02:10:46.366Z,198.82
2019-01-11T02:11:49.787Z,195.68
2019-01-11T02:12:53.157Z,187.77
2019-01-11T02:13:56.525Z,178.53
2019-01-11T02:15:00.192Z,175.80
2019-01-11T02:16:03.464Z,176.45
2019-01-11T02:17:06.818Z,191.32
2019-01-11T02:18:10.111Z,164.70
2019-01-11T02:19:13.414Z,153.27
2019-01-11T02:20:17.541Z,150.20
2019-01-11T02:21:20.826Z,143.50
2019-01-11T02:22:24.224Z,155.27
2019-01-11T02:23:27.506Z,141.57
2019-01-11T02:24:30.791Z,142.68
2019-01-11T02:25:34.085Z,139.97
2019-01-11T02:26:37.456Z,146.85
2019-01-11T02:27:40.784Z,145.47
2019-01-11T02:28:44.400Z,149.30
2019-01-11T02:29:47.751Z,145.07
2019-01-11T02:30:51.115Z,139.07
2019-01-11T02:31:54.525Z,145.80
2019-01-11T02:32:57.918Z,141.92
2019-01-11T02:34:01.207Z,141.12
2019-01-11T02:35:05.061Z,139.60
2019-01-11T02:36:08.714Z,134.97
2019-01-11T02:37:12.070Z,146.60
2019-01-11T02:38:15.466Z,143.22
2019-01-11T02:39:18.763Z,129.47
2019-01-11T02:40:22.043Z,136.50
2019-01-11T02:41:25.671Z,143.65
2019-01-11T02:42:28.959Z,137.65
2019-01-11T02:43:32.297Z,136.77
2019-01-11T02:44:37.303Z,141.82
2019-01-11T02:45:40.589Z,139.43
2019-01-11T02:46:43.874Z,135.85
2019-01-11T02:47:47.157Z,130.70
2019-01-11T02:48:50.471Z,137.65
2019-01-11T02:49:55.089Z,133.22
2019-01-11T02:50:58.583Z,130.00
2019-01-11T02:52:01.874Z,122.25
2019-01-11T02:53:05.161Z,122.78
2019-01-11T02:54:08.486Z,125.22
2019-01-11T02:55:11.881Z,123.65
2019-01-11T02:56:15.165Z,125.27
2019-01-11T02:57:18.453Z,126.33
2019-01-11T02:58:21.748Z,122.00
2019-01-11T02:59:25.140Z,119.10
2019-01-11T03:00:28.507Z,121.60
2019-01-11T03:01:31.789Z,120.60
2019-01-11T03:02:35.078Z,115.22
2019-01-11T03:03:38.359Z,113.00
2019-01-11T03:04:41.682Z,115.55
2019-01-11T03:05:44.991Z,118.40
2019-01-11T03:06:48.384Z,120.82
2019-01-11T03:07:51.667Z,113.65
2019-01-11T03:08:54.957Z,116.22
2019-01-11T03:09:58.285Z,111.57
2019-01-11T03:11:01.574Z,107.97
2019-01-11T03:12:04.870Z,110.65
2019-01-11T03:13:08.159Z,112.72
2019-01-11T03:14:11.510Z,112.77
2019-01-11T03:15:15.991Z,106.40
2019-01-11T03:16:19.386Z,108.95
2019-01-11T03:17:22.679Z,106.92
2019-01-11T03:18:25.985Z,106.32
2019-01-11T03:19:29.253Z,109.75
2019-01-11T03:20:32.544Z,112.12
2019-01-11T03:21:35.881Z,105.60
2019-01-11T03:22:39.183Z,113.62
2019-01-11T03:23:42.856Z,108.17
2019-01-11T03:24:46.522Z,102.45
2019-01-11T03:25:49.815Z,103.75
2019-01-11T03:26:53.139Z,106.85
2019-01-11T03:27:56.421Z,105.17
2019-01-11T03:28:59.721Z,105.63
2019-01-11T03:30:03.377Z,111.95
2019-01-11T03:31:08.314Z,117.65
2019-01-11T03:32:11.643Z,117.13
2019-01-11T03:33:14.924Z,127.27
2019-01-11T03:34:18.216Z,124.87
2019-01-11T03:35:21.501Z,115.37
2019-01-11T03:36:24.787Z,109.50
2019-01-11T03:37:28.110Z,121.33
2019-01-11T03:38:31.497Z,120.35
2019-01-11T03:39:34.798Z,121.13
2019-01-11T03:40:38.422Z,124.20
2019-01-11T03:41:43.355Z,120.85
2019-01-11T03:42:46.687Z,118.62
2019-01-11T03:43:49.950Z,112.42
2019-01-11T03:44:53.240Z,115.52
2019-01-11T03:45:56.525Z,117.87
2019-01-11T03:46:59.815Z,121.67
2019-01-11T03:48:03.560Z,122.15
2019-01-11T03:49:06.920Z,115.72
2019-01-11T03:50:12.527Z,111.47
2019-01-11T03:51:15.804Z,109.75
2019-01-11T03:52:19.459Z,130.90
2019-01-11T03:53:22.823Z,127.05
2019-01-11T03:54:26.080Z,127.65
2019-01-11T03:55:29.370Z,119.47
2019-01-11T03:56:32.660Z,115.92
2019-01-11T03:57:36.030Z,107.43
2019-01-11T03:58:39.347Z,109.07
2019-01-11T03:59:42.989Z,114.42
2019-01-11T04:00:46.278Z,120.57
2019-01-11T04:01:49.561Z,130.72
2019-01-11T04:02:52.918Z,122.30
2019-01-11T04:03:56.240Z,139.95
2019-01-11T04:04:59.528Z,144.00
2019-01-11T04:06:02.813Z,132.35
2019-01-11T04:07:06.100Z,148.38
2019-01-11T04:08:09.468Z,147.05
2019-01-11T04:09:12.809Z,149.20
2019-01-11T04:10:18.349Z,234.72
2019-01-11T04:11:21.649Z,282.10
2019-01-11T04:12:25.261Z,243.20
2019-01-11T04:13:30.576Z,159.65
2019-01-11T04:14:33.747Z,174.80
2019-01-11T04:15:37.105Z,158.42
2019-01-11T04:16:40.393Z,164.57
2019-01-11T04:17:43.749Z,157.65
2019-01-11T04:18:48.672Z,164.20
2019-01-11T04:19:52.007Z,163.35
2019-01-11T04:20:56.875Z,161.03
2019-01-11T04:22:01.801Z,158.60
2019-01-11T04:23:05.093Z,160.70
2019-01-11T04:24:08.446Z,161.30
2019-01-11T04:25:13.496Z,159.72
2019-01-11T04:26:16.785Z,159.90
2019-01-11T04:27:20.156Z,149.40
2019-01-11T04:28:23.584Z,156.02
2019-01-11T04:29:26.938Z,167.10
2019-01-11T04:30:30.256Z,155.67
2019-01-11T04:31:33.604Z,155.18
2019-01-11T04:32:36.951Z,159.80
2019-01-11T04:33:40.236Z,153.90
2019-01-11T04:34:43.544Z,155.85
2019-01-11T04:35:46.855Z,167.70
2019-01-11T04:36:50.136Z,174.82
2019-01-11T04:37:53.529Z,163.47
2019-01-11T04:38:56.815Z,163.82
2019-01-11T04:40:00.106Z,162.20
2019-01-11T04:41:03.914Z,152.53
2019-01-11T04:42:07.284Z,151.53
2019-01-11T04:43:10.666Z,150.72
2019-01-11T04:44:14.461Z,158.75
2019-01-11T04:45:17.920Z,147.55
2019-01-11T04:46:21.246Z,153.27
2019-01-11T04:47:24.627Z,163.60
2019-01-11T04:48:27.905Z,160.88
2019-01-11T04:49:31.195Z,175.12
2019-01-11T04:50:34.491Z,171.05
2019-01-11T04:51:37.823Z,162.35
2019-01-11T04:52:41.143Z,165.47
2019-01-11T04:53:44.498Z,233.10
2019-01-11T04:54:47.784Z,202.78
2019-01-11T04:55:51.074Z,186.57
2019-01-11T04:56:54.387Z,163.32
2019-01-11T04:57:58.028Z,170.25
2019-01-11T04:59:01.424Z,158.70
2019-01-11T05:00:11.218Z,180.95
2019-01-11T05:01:14.570Z,158.97
2019-01-11T05:02:17.856Z,149.07
2019-01-11T05:03:21.478Z,151.00
2019-01-11T05:04:24.841Z,131.40
2019-01-11T05:05:28.129Z,120.80
2019-01-11T05:06:31.492Z,115.32
2019-01-11T05:07:34.829Z,117.45
2019-01-11T05:08:38.123Z,122.67
2019-01-11T05:09:41.409Z,110.72
2019-01-11T05:10:44.725Z,104.67
2019-01-11T05:11:48.018Z,105.43
2019-01-11T05:12:51.409Z,98.17
2019-01-11T05:13:54.766Z,87.27
2019-01-11T05:14:58.065Z,103.45
2019-01-11T05:16:01.425Z,115.28
2019-01-11T05:17:04.710Z,89.62
2019-01-11T05:18:08.047Z,88.52
2019-01-11T05:19:11.336Z,87.08
2019-01-11T05:20:17.138Z,86.97
2019-01-11T05:21:20.834Z,84.90
2019-01-11T05:22:24.129Z,84.70
2019-01-11T05:23:27.534Z,90.65
2019-01-11T05:24:30.834Z,86.75
2019-01-11T05:25:34.121Z,74.72
2019-01-11T05:26:37.467Z,76.62
2019-01-11T05:27:40.764Z,70.40
2019-01-11T05:28:44.077Z,84.10
2019-01-11T05:29:47.356Z,84.67
2019-01-11T05:30:50.946Z,85.53
2019-01-11T05:31:54.573Z,78.67
2019-01-11T05:32:57.869Z,81.25
2019-01-11T05:34:01.166Z,78.28
2019-01-11T05:35:05.971Z,82.02
2019-01-11T05:36:09.329Z,84.58
2019-01-11T05:37:12.680Z,84.60
2019-01-11T05:38:15.974Z,76.33
2019-01-11T05:39:19.390Z,77.85
2019-01-11T05:40:22.649Z,84.83
2019-01-11T05:41:25.961Z,74.00
2019-01-11T05:42:29.219Z,88.87
2019-01-11T05:43:32.565Z,81.78
2019-01-11T05:44:35.885Z,82.65
2019-01-11T05:45:39.167Z,75.10
2019-01-11T05:46:46.837Z,77.90
2019-01-11T05:47:50.326Z,78.62
2019-01-11T05:48:53.762Z,67.35
2019-01-11T05:49:57.082Z,59.35
2019-01-11T05:51:00.378Z,42.53
2019-01-11T05:52:03.680Z,36.40
2019-01-11T05:53:06.960Z,50.30
2019-01-11T05:54:10.257Z,45.40
2019-01-11T05:55:15.230Z,46.13
2019-01-11T05:56:19.292Z,34.83
2019-01-11T05:57:22.598Z,39.10
2019-01-11T05:58:32.127Z,42.98
2019-01-11T05:59:35.786Z,40.70
2019-01-11T06:00:39.087Z,43.60
2019-01-11T06:01:42.382Z,46.70
2019-01-11T06:02:45.816Z,51.33
2019-01-11T06:03:49.161Z,42.80
2019-01-11T06:04:52.544Z,47.48
2019-01-11T06:05:55.868Z,49.10
2019-01-11T06:07:01.821Z,62.75
2019-01-11T06:08:06.701Z,47.85
2019-01-11T06:09:09.984Z,53.08
2019-01-11T06:10:14.958Z,52.15
2019-01-11T06:11:18.242Z,50.43
2019-01-11T06:12:22.597Z,44.90
2019-01-11T06:13:25.879Z,46.83
2019-01-11T06:14:29.561Z,48.98
2019-01-11T06:15:32.874Z,39.95
2019-01-11T06:16:36.503Z,31.70
2019-01-11T06:17:39.861Z,32.08
2019-01-11T06:18:43.130Z,34.35
2019-01-11T06:19:46.559Z,33.13
2019-01-11T06:20:50.354Z,37.83
2019-01-11T06:21:53.727Z,34.10
2019-01-11T06:22:57.367Z,29.48
2019-01-11T06:24:02.693Z,35.63
2019-01-11T06:25:06.355Z,31.95
2019-01-11T06:26:09.740Z,38.83
2019-01-11T06:27:13.029Z,32.23
2019-01-11T06:28:16.323Z,30.05
2019-01-11T06:29:19.937Z,30.50
2019-01-11T06:30:23.592Z,41.90
2019-01-11T06:31:27.002Z,51.28
2019-01-11T06:32:30.282Z,34.40
2019-01-11T06:33:33.629Z,34.10
2019-01-11T06:34:36.988Z,33.33
2019-01-11T06:35:40.344Z,30.62
2019-01-11T06:36:43.652Z,34.70
2019-01-11T06:37:47.409Z,30.57
2019-01-11T06:38:50.702Z,27.65
2019-01-11T06:39:54.005Z,22.77
2019-01-11T06:40:58.920Z,28.15
2019-01-11T06:42:05.574Z,25.32
2019-01-11T06:43:09.024Z,20.48
2019-01-11T06:44:12.634Z,27.50
2019-01-11T06:45:16.262Z,33.02
2019-01-11T06:46:21.551Z,24.00
2019-01-11T06:47:24.960Z,25.92
2019-01-11T06:48:29.886Z,29.92
2019-01-11T06:49:33.165Z,33.58
2019-01-11T06:50:36.680Z,32.58
2019-01-11T06:51:39.987Z,30.40
2019-01-11T06:52:43.389Z,27.27
2019-01-11T06:53:46.728Z,28.00
2019-01-11T06:54:50.086Z,30.08
2019-01-11T06:55:53.378Z,31.90
2019-01-11T06:56:56.732Z,31.77
2019-01-11T06:58:00.088Z,28.87
2019-01-11T06:59:04.970Z,25.88
2019-01-11T07:00:16.893Z,27.62
2019-01-11T07:01:21.350Z,27.42
2019-01-11T07:02:24.706Z,25.43
2019-01-11T07:03:28.096Z,26.35
2019-01-11T07:04:31.452Z,27.37
2019-01-11T07:05:35.277Z,29.80
2019-01-11T07:06:49.511Z,32.88
2019-01-11T07:07:52.865Z,25.72
2019-01-11T07:08:56.619Z,27.37
2019-01-11T07:10:00.132Z,31.55
2019-01-11T07:11:03.943Z,38.00
2019-01-11T07:12:07.224Z,37.63
2019-01-11T07:13:10.510Z,37.78
2019-01-11T07:14:13.907Z,67.35
2019-01-11T07:15:17.686Z,196.12
2019-01-11T07:16:20.980Z,89.00
2019-01-11T07:17:24.260Z,39.00
2019-01-11T07:18:27.946Z,52.55
2019-01-11T07:19:32.633Z,34.60
2019-01-11T07:20:36.221Z,63.28
2019-01-11T07:21:41.060Z,36.33
2019-01-11T07:22:44.381Z,43.40
2019-01-11T07:23:47.660Z,45.03
2019-01-11T07:24:50.988Z,51.20
2019-01-11T07:25:54.273Z,42.67
2019-01-11T07:26:57.725Z,38.08
2019-01-11T07:28:02.186Z,48.63
2019-01-11T07:29:05.573Z,38.23
2019-01-11T07:30:12.272Z,32.55
2019-01-11T07:31:15.799Z,27.48
2019-01-11T07:32:19.229Z,30.68
2019-01-11T07:33:23.485Z,29.85
2019-01-11T07:34:28.473Z,27.50
2019-01-11T07:35:33.466Z,27.40
2019-01-11T07:36:36.991Z,29.05
2019-01-11T07:37:40.286Z,29.30
2019-01-11T07:38:52.425Z,29.35
2019-01-11T07:39:55.705Z,27.22
2019-01-11T07:40:58.987Z,30.20
2019-01-11T07:42:02.282Z,27.87
2019-01-11T07:43:05.567Z,31.07
2019-01-11T07:44:08.874Z,32.73
2019-01-11T07:45:13.315Z,38.23
2019-01-11T07:46:16.710Z,39.83
2019-01-11T07:47:20.424Z,34.20
2019-01-11T07:48:23.793Z,37.63
2019-01-11T07:49:27.089Z,41.15
2019-01-11T07:50:30.691Z,35.98
2019-01-11T07:51:33.979Z,37.90
2019-01-11T07:52:37.264Z,33.67
2019-01-11T07:53:40.629Z,29.50
2019-01-11T07:54:44.154Z,38.70
2019-01-11T07:55:47.402Z,31.62
2019-01-11T07:56:50.972Z,36.28
2019-01-11T07:57:54.256Z,40.73
2019-01-11T07:58:57.537Z,35.05
2019-01-11T08:00:01.142Z,51.42
2019-01-11T08:01:04.530Z,46.95
2019-01-11T08:02:07.875Z,45.50
2019-01-11T08:03:11.171Z,33.25
2019-01-11T08:04:14.456Z,40.45
2019-01-11T08:05:17.789Z,38.75
2019-01-11T08:06:21.087Z,31.15
2019-01-11T08:07:24.441Z,33.53
2019-01-11T08:08:27.725Z,31.12
2019-01-11T08:09:31.171Z,40.35
2019-01-11T08:10:34.482Z,57.62
2019-01-11T08:11:37.770Z,70.20
2019-01-11T08:12:41.061Z,56.45
2019-01-11T08:13:44.346Z,44.18
2019-01-11T08:14:47.782Z,39.58
2019-01-11T08:15:51.106Z,34.25
2019-01-11T08:16:54.410Z,35.73
2019-01-11T08:17:57.686Z,37.83
2019-01-11T08:19:01.130Z,36.03
2019-01-11T08:20:05.645Z,42.98
2019-01-11T08:21:10.560Z,60.40
2019-01-11T08:22:15.533Z,127.45
2019-01-11T08:23:18.895Z,46.35
2019-01-11T08:24:22.312Z,39.78
2019-01-11T08:25:25.570Z,39.15
2019-01-11T08:26:28.857Z,49.90
2019-01-11T08:27:32.141Z,99.67
2019-01-11T08:28:35.531Z,91.63
2019-01-11T08:29:38.881Z,61.37
2019-01-11T08:30:42.174Z,279.55
2019-01-11T08:31:45.469Z,106.52
2019-01-11T08:32:48.747Z,26.05
2019-01-11T08:33:52.958Z,23.65
2019-01-11T08:34:56.244Z,28.90
2019-01-11T08:35:59.741Z,28.85
2019-01-11T08:37:03.197Z,32.05
2019-01-11T08:38:06.490Z,43.75
2019-01-11T08:39:09.813Z,43.17
2019-01-11T08:40:13.278Z,52.38
2019-01-11T08:41:16.576Z,39.33
2019-01-11T08:42:19.908Z,37.15
2019-01-11T08:43:23.204Z,43.25
2019-01-11T08:44:26.529Z,37.25
2019-01-11T08:45:30.135Z,31.87
2019-01-11T08:46:33.414Z,33.55
2019-01-11T08:47:36.762Z,35.28
2019-01-11T08:48:40.114Z,36.50
2019-01-11T08:49:43.817Z,36.17
2019-01-11T08:50:48.778Z,40.30
2019-01-11T08:51:52.054Z,23.52
2019-01-11T08:52:56.123Z,20.50
2019-01-11T08:53:59.481Z,23.20
2019-01-11T08:55:02.801Z,21.68
2019-01-11T08:56:08.413Z,31.57
2019-01-11T08:57:11.170Z,38.95
2019-01-11T08:58:14.458Z,35.28
2019-01-11T08:59:17.748Z,31.80
2019-01-11T09:00:21.110Z,27.95
2019-01-11T09:01:24.466Z,27.90
2019-01-11T09:02:27.763Z,28.55
2019-01-11T09:03:32.682Z,26.42
2019-01-11T09:04:35.972Z,46.05
2019-01-11T09:05:39.366Z,100.38
2019-01-11T09:06:42.652Z,117.87
2019-01-11T09:07:46.034Z,95.47
2019-01-11T09:08:49.747Z,81.97
2019-01-11T09:09:53.039Z,62.50
2019-01-11T09:10:56.365Z,78.72
2019-01-11T09:11:59.684Z,70.22
2019-01-11T09:13:03.068Z,55.65
2019-01-11T09:14:08.332Z,99.67
2019-01-11T09:15:12.010Z,96.47
2019-01-11T09:16:20.607Z,83.80
2019-01-11T09:17:20.795Z,111.08
2019-01-11T09:18:25.808Z,47.43
2019-01-11T09:19:29.079Z,29.32
2019-01-11T09:20:32.375Z,24.92
2019-01-11T09:21:41.465Z,28.80
2019-01-11T09:22:40.852Z,30.82
2019-01-11T09:23:44.137Z,38.38
2019-01-11T09:24:47.422Z,39.50
2019-01-11T09:25:50.723Z,40.92
2019-01-11T09:26:54.052Z,41.15
2019-01-11T09:27:57.370Z,38.85
2019-01-11T09:29:03.002Z,39.73
2019-01-11T09:30:09.120Z,46.75
2019-01-11T09:31:12.978Z,45.55
2019-01-11T09:32:16.283Z,37.05
2019-01-11T09:33:20.562Z,37.38
2019-01-11T09:34:24.534Z,41.42
2019-01-11T09:35:27.829Z,94.58
2019-01-11T09:36:31.122Z,120.80
2019-01-11T09:37:34.501Z,85.75
2019-01-11T09:38:37.757Z,47.23
2019-01-11T09:39:41.099Z,47.62
2019-01-11T09:40:44.634Z,41.90
2019-01-11T09:41:47.915Z,43.23
2019-01-11T09:42:51.391Z,108.97
2019-01-11T09:43:54.746Z,105.03
2019-01-11T09:44:58.035Z,87.17
2019-01-11T09:46:01.320Z,75.25
2019-01-11T09:47:04.661Z,60.92
2019-01-11T09:48:08.005Z,130.27
2019-01-11T09:49:11.386Z,136.88
2019-01-11T09:50:14.749Z,118.80
2019-01-11T09:51:18.057Z,119.40
2019-01-11T09:52:21.423Z,95.25
2019-01-11T09:53:24.744Z,112.95
2019-01-11T09:54:28.034Z,90.77
2019-01-11T09:55:31.392Z,87.35
2019-01-11T09:56:34.791Z,48.52
2019-01-11T09:57:38.150Z,109.83
2019-01-11T09:58:41.522Z,92.20
2019-01-11T09:59:44.924Z,87.25
2019-01-11T10:00:48.350Z,68.22
2019-01-11T10:01:53.278Z,43.60
2019-01-11T10:03:01.057Z,41.10
2019-01-11T10:04:04.542Z,41.92
2019-01-11T10:05:09.014Z,60.78
2019-01-11T10:06:12.417Z,60.25
2019-01-11T10:07:20.044Z,38.53
2019-01-11T10:08:23.505Z,32.35
2019-01-11T10:09:26.858Z,32.90
2019-01-11T10:10:30.148Z,32.05
2019-01-11T10:11:33.469Z,30.02
2019-01-11T10:12:36.778Z,29.65
2019-01-11T10:13:40.336Z,33.05
2019-01-11T10:14:43.618Z,31.20
2019-01-11T10:15:46.911Z,37.25
2019-01-11T10:16:50.274Z,40.12
2019-01-11T10:17:53.822Z,40.05
2019-01-11T10:18:57.117Z,39.88
2019-01-11T10:20:00.398Z,26.15
2019-01-11T10:21:03.702Z,27.02
2019-01-11T10:22:07.058Z,25.35
2019-01-11T10:23:10.364Z,25.60
2019-01-11T10:24:13.691Z,25.08
2019-01-11T10:25:17.045Z,36.13
2019-01-11T10:26:20.337Z,70.97
2019-01-11T10:27:24.000Z,69.00
2019-01-11T10:28:27.300Z,73.75
2019-01-11T10:29:30.636Z,55.55
2019-01-11T10:30:33.919Z,49.67
2019-01-11T10:31:37.547Z,41.92
2019-01-11T10:32:40.973Z,35.60
2019-01-11T10:33:44.363Z,30.27
2019-01-11T10:34:47.689Z,33.73
2019-01-11T10:35:53.340Z,31.37
2019-01-11T10:36:56.618Z,30.40
2019-01-11T10:37:59.952Z,32.83
2019-01-11T10:39:03.988Z,35.65
2019-01-11T10:40:11.796Z,31.75
2019-01-11T10:41:15.065Z,26.23
2019-01-11T10:42:18.511Z,26.73
2019-01-11T10:43:21.964Z,27.30
2019-01-11T10:44:25.266Z,18.40
2019-01-11T10:45:28.648Z,20.07
2019-01-11T10:46:35.770Z,16.00
2019-01-11T10:47:39.045Z,15.20
2019-01-11T10:48:42.325Z,14.97
2019-01-11T10:49:45.615Z,15.57
2019-01-11T10:50:48.958Z,16.20
2019-01-11T10:51:52.253Z,16.80
2019-01-11T10:52:55.801Z,12.73
2019-01-11T10:53:59.081Z,19.90
2019-01-11T10:55:02.380Z,17.60
2019-01-11T10:56:05.689Z,13.93
2019-01-11T10:57:09.037Z,14.77
2019-01-11T10:58:12.318Z,26.50
2019-01-11T10:59:17.119Z,17.10
2019-01-11T11:00:24.610Z,18.03
2019-01-11T11:01:27.966Z,17.00
2019-01-11T11:02:31.250Z,20.90
2019-01-11T11:03:34.649Z,21.63
2019-01-11T11:04:38.013Z,22.73
2019-01-11T11:05:41.309Z,19.77
2019-01-11T11:06:44.742Z,27.97
2019-01-11T11:07:48.029Z,18.97
2019-01-11T11:08:51.310Z,23.07
2019-01-11T11:09:54.652Z,18.33
2019-01-11T11:10:58.002Z,17.67
2019-01-11T11:12:01.409Z,28.47
2019-01-11T11:13:04.701Z,20.90
2019-01-11T11:14:08.112Z,26.27
2019-01-11T11:15:13.747Z,24.20
2019-01-11T11:16:17.030Z,101.40
2019-01-11T11:17:20.349Z,105.17
2019-01-11T11:18:23.776Z,92.23
2019-01-11T11:19:27.143Z,59.18
2019-01-11T11:20:30.500Z,69.53
2019-01-11T11:21:34.790Z,31.85
2019-01-11T11:22:38.286Z,26.37
2019-01-11T11:23:43.147Z,31.97
2019-01-11T11:24:46.460Z,29.52
2019-01-11T11:25:49.744Z,41.30
2019-01-11T11:26:53.100Z,88.42
2019-01-11T11:27:56.431Z,41.00
2019-01-11T11:28:59.720Z,23.95
2019-01-11T11:30:03.016Z,20.75
2019-01-11T11:31:06.307Z,41.23
2019-01-11T11:32:12.791Z,34.83
2019-01-11T11:33:21.245Z,28.15
2019-01-11T11:34:25.484Z,19.95
2019-01-11T11:35:30.309Z,18.02
2019-01-11T11:36:33.600Z,22.70
2019-01-11T11:37:36.891Z,19.35
2019-01-11T11:38:40.216Z,19.20
2019-01-11T11:39:43.533Z,25.27
2019-01-11T11:40:47.180Z,35.63
2019-01-11T11:41:50.562Z,34.10
2019-01-11T11:42:53.902Z,35.78
2019-01-11T11:43:57.299Z,39.70
2019-01-11T11:45:00.600Z,34.85
2019-01-11T11:46:03.974Z,38.80
2019-01-11T11:47:07.274Z,35.58
2019-01-11T11:48:10.639Z,26.80
2019-01-11T11:49:14.285Z,28.23
2019-01-11T11:50:17.581Z,30.05
2019-01-11T11:51:20.936Z,31.73
2019-01-11T11:52:24.413Z,31.33
2019-01-11T11:53:27.746Z,41.58
2019-01-11T11:54:31.075Z,41.10
2019-01-11T11:55:34.376Z,51.02
2019-01-11T11:56:37.668Z,36.63
2019-01-11T11:57:40.962Z,34.92
2019-01-11T11:58:44.249Z,37.38
2019-01-11T11:59:47.639Z,29.70
2019-01-11T12:00:50.943Z,25.88
2019-01-11T12:01:54.222Z,25.50
2019-01-11T12:02:57.568Z,27.70
2019-01-11T12:04:00.820Z,29.25
2019-01-11T12:05:06.674Z,29.32
2019-01-11T12:06:09.965Z,18.02
2019-01-11T12:07:13.263Z,18.02
2019-01-11T12:08:16.569Z,18.87
2019-01-11T12:09:19.867Z,19.40
2019-01-11T12:10:23.568Z,16.30
2019-01-11T12:11:26.933Z,19.40
2019-01-11T12:12:31.427Z,19.23
2019-01-11T12:13:34.961Z,19.70
2019-01-11T12:14:38.308Z,19.03
2019-01-11T12:15:41.637Z,17.00
2019-01-11T12:16:44.931Z,15.32
2019-01-11T12:17:48.230Z,16.60
2019-01-11T12:18:51.564Z,24.70
2019-01-11T12:19:57.145Z,31.68
2019-01-11T12:21:00.069Z,19.23
2019-01-11T12:22:03.365Z,13.77
2019-01-11T12:23:06.636Z,13.27
2019-01-11T12:24:09.924Z,13.75
2019-01-11T12:25:13.204Z,12.43
2019-01-11T12:26:16.669Z,16.77
2019-01-11T12:27:20.005Z,14.35
2019-01-11T12:28:23.285Z,14.00
2019-01-11T12:29:26.794Z,15.87
2019-01-11T12:30:30.077Z,14.83
2019-01-11T12:31:33.537Z,17.37
2019-01-11T12:32:36.831Z,16.13
2019-01-11T12:33:40.112Z,12.23
2019-01-11T12:34:43.381Z,16.00
2019-01-11T12:35:46.690Z,22.57
2019-01-11T12:36:49.994Z,22.70
2019-01-11T12:37:53.287Z,19.20
2019-01-11T12:38:56.561Z,18.87
2019-01-11T12:39:59.848Z,16.60
2019-01-11T12:41:03.133Z,19.70
2019-01-11T12:42:06.450Z,29.17
2019-01-11T12:43:12.077Z,18.57
2019-01-11T12:44:15.427Z,24.07
2019-01-11T12:45:18.817Z,20.37
2019-01-11T12:46:22.260Z,14.50
2019-01-11T12:47:25.595Z,16.43
2019-01-11T12:48:28.998Z,18.83
2019-01-11T12:49:32.349Z,20.13
2019-01-11T12:50:36.130Z,16.53
2019-01-11T12:51:39.424Z,11.57
2019-01-11T12:52:42.707Z,12.60
2019-01-11T12:53:46.086Z,12.63
2019-01-11T12:54:50.747Z,13.27
2019-01-11T12:55:54.049Z,14.43
2019-01-11T12:56:57.361Z,19.13
2019-01-11T12:58:00.638Z,18.60
2019-01-11T12:59:04.332Z,18.13
2019-01-11T13:00:13.465Z,13.93
2019-01-11T13:01:16.747Z,12.87
2019-01-11T13:02:20.027Z,10.97
2019-01-11T13:03:23.448Z,14.57
2019-01-11T13:04:27.073Z,14.53
2019-01-11T13:05:30.365Z,25.67
2019-01-11T13:06:33.718Z,31.70
2019-01-11T13:07:37.008Z,36.50
2019-01-11T13:08:40.294Z,37.30
2019-01-11T13:09:43.622Z,31.27
2019-01-11T13:10:46.905Z,25.53
2019-01-11T13:11:50.189Z,17.23
2019-01-11T13:12:53.611Z,24.90
2019-01-11T13:13:56.888Z,48.23
2019-01-11T13:15:00.287Z,26.83
2019-01-11T13:16:03.672Z,23.27
2019-01-11T13:17:07.033Z,30.77
2019-01-11T13:18:10.311Z,29.10
2019-01-11T13:19:13.638Z,32.47
2019-01-11T13:20:19.152Z,22.53
2019-01-11T13:21:22.819Z,17.13
2019-01-11T13:22:26.109Z,13.20
2019-01-11T13:23:29.406Z,20.60
2019-01-11T13:24:32.762Z,16.60
2019-01-11T13:25:36.073Z,17.83
2019-01-11T13:26:39.436Z,20.20
2019-01-11T13:27:42.720Z,15.70
2019-01-11T13:28:46.001Z,15.07